Ariel — SGUB — position and weather

sailwx.info

Track history (hours):
 
Tides and Currents Weather Stations Pressure Air Temp Water Temp Dewpoint Dewpoint Depression Visibility Wind Speed Wind Dir Waves Ship Positions

Ariel

Last reported at 2017-Jul-28 04:31 UTC. Time now 2017-Jul-28 04:44 UTC.
Position N 59°14' E 018°24'.

Length 22 m; draft 2.6 m.

Type: Sailing vessel. MMSI: 265516070.

Date/timePositionNaut miles runAvg speedWind from/ knotsBaromVisibWave heightAir tempDewpointWater temp
2017-Jul-28 04:31N 59°14' E 018°24'0 0.0
2017-Jul-28 03:59N 59°14' E 018°24'0 0.0
2017-Jul-28 03:30N 59°14' E 018°24'0 0.0
2017-Jul-28 03:00N 59°14' E 018°24'0 0.0
2017-Jul-28 02:30N 59°14' E 018°24'0 0.0
2017-Jul-28 02:00N 59°14' E 018°24'0 0.0
2017-Jul-28 01:30N 59°14' E 018°24'0 0.0
2017-Jul-28 01:00N 59°14' E 018°24'0 0.0
2017-Jul-28 00:30N 59°14' E 018°24'0 0.0
2017-Jul-28 00:01N 59°14' E 018°24'0 0.0
2017-Jul-27 23:30N 59°14' E 018°24'0 0.0
2017-Jul-27 23:00N 59°14' E 018°24'0 0.0
2017-Jul-27 22:30N 59°14' E 018°24'0 0.0
2017-Jul-27 22:01N 59°14' E 018°24'0 0.0
2017-Jul-27 21:30N 59°14' E 018°24'0 0.0
2017-Jul-27 21:01N 59°14' E 018°24'0 0.0
2017-Jul-27 20:30N 59°14' E 018°24'0 0.0
2017-Jul-27 20:00N 59°14' E 018°24'0 0.0
2017-Jul-27 19:30N 59°14' E 018°24'0 0.0
2017-Jul-27 19:00N 59°14' E 018°24'0 0.0
2017-Jul-27 18:31N 59°14' E 018°24'0 0.0
2017-Jul-27 17:59N 59°14' E 018°24'0 0.0
2017-Jul-27 17:30N 59°14' E 018°24'0 0.0
2017-Jul-27 17:00N 59°14' E 018°24'0 0.0
2017-Jul-27 16:30N 59°14' E 018°24'0 0.0
2017-Jul-27 16:00N 59°14' E 018°24'0 0.0
2017-Jul-27 15:30N 59°14' E 018°24'0 0.0
2017-Jul-27 15:00N 59°14' E 018°24'0 0.0
2017-Jul-27 14:01N 59°14' E 018°24'0 0.0
2017-Jul-27 13:30N 59°14' E 018°24'0 0.0
2017-Jul-27 13:00N 59°14' E 018°24'0 0.0
2017-Jul-27 12:31N 59°14' E 018°24'1 1.4
2017-Jul-27 12:00N 59°14' E 018°24'0 0.6
2017-Jul-27 11:28N 59°14' E 018°25'1 2.6
2017-Jul-27 11:00N 59°13' E 018°27'2 3.5
2017-Jul-27 10:31N 59°12' E 018°30'2 3.7
2017-Jul-27 09:58N 59°10' E 018°31'2 4.2
2017-Jul-27 09:26N 59°08' E 018°33'2 3.0
2017-Jul-27 08:48N 59°06' E 018°32'1 0.7
2017-Jul-27 07:29N 59°05' E 018°32'0 0.0
2017-Jul-27 06:50N 59°05' E 018°32'0 0.0
2017-Jul-27 06:18N 59°05' E 018°32'0 0.0
2017-Jul-27 05:59N 59°05' E 018°32'0 0.0
2017-Jul-27 05:30N 59°05' E 018°32'0 0.0
2017-Jul-27 05:00N 59°05' E 018°32'0 0.0
2017-Jul-27 04:20N 59°05' E 018°32'0 0.0
2017-Jul-27 03:58N 59°05' E 018°32'0 0.0
2017-Jul-27 03:29N 59°05' E 018°32'0 0.0
2017-Jul-27 02:58N 59°05' E 018°32'0 0.0
2017-Jul-27 00:22N 59°05' E 018°32'0 0.0
2017-Jul-26 23:57N 59°05' E 018°32'0 0.0
2017-Jul-26 23:30N 59°05' E 018°32'0 0.0
2017-Jul-26 22:59N 59°05' E 018°32'0 0.0
2017-Jul-26 22:27N 59°05' E 018°32'0 0.0
2017-Jul-26 22:00N 59°05' E 018°32'0 0.0
2017-Jul-26 21:30N 59°05' E 018°32'0 0.0
2017-Jul-26 20:56N 59°05' E 018°32'0 0.0
2017-Jul-26 20:29N 59°05' E 018°32'0 0.0
2017-Jul-26 20:00N 59°05' E 018°32'0 0.0
2017-Jul-26 19:28N 59°05' E 018°32'0 0.0
2017-Jul-26 18:59N 59°05' E 018°32'3 2.6
2017-Jul-26 17:57N 59°07' E 018°29'  
2017-Jul-24 07:42N 59°08' E 018°24'0 0.0
2017-Jul-24 07:30N 59°08' E 018°24'0 0.0
2017-Jul-24 06:58N 59°08' E 018°24'0 0.0
2017-Jul-24 06:29N 59°08' E 018°24'0 0.0
2017-Jul-24 05:58N 59°08' E 018°24'0 0.0
2017-Jul-24 04:21N 59°08' E 018°24'0 0.0
2017-Jul-24 01:28N 59°08' E 018°24'0 0.0
2017-Jul-24 01:00N 59°08' E 018°24'0 0.0
2017-Jul-24 00:28N 59°08' E 018°24'0 0.0
2017-Jul-23 23:54N 59°08' E 018°24'0 0.0
2017-Jul-23 23:20N 59°08' E 018°24'0 0.0
2017-Jul-23 22:58N 59°08' E 018°24'0 0.0
2017-Jul-23 22:29N 59°08' E 018°24'0 0.0
2017-Jul-23 20:57N 59°08' E 018°24'0 0.0
2017-Jul-23 08:08N 59°08' E 018°24'0 0.0
2017-Jul-23 07:59N 59°08' E 018°24'0 0.0
2017-Jul-23 07:23N 59°08' E 018°24'0 0.0
2017-Jul-23 06:48N 59°08' E 018°24'0 0.0
2017-Jul-23 06:29N 59°08' E 018°24'0 0.0
2017-Jul-23 05:59N 59°08' E 018°24'0 0.0
2017-Jul-23 05:17N 59°08' E 018°24'0 0.0
2017-Jul-23 04:41N 59°08' E 018°24'0 0.0
2017-Jul-23 04:20N 59°08' E 018°24'0 0.0
2017-Jul-23 03:53N 59°08' E 018°24'0 0.0
2017-Jul-23 03:29N 59°08' E 018°24'0 0.0
2017-Jul-23 02:56N 59°08' E 018°24'0 0.0
2017-Jul-23 02:26N 59°08' E 018°24'0 0.0
2017-Jul-22 23:29N 59°08' E 018°24'  
Track history (hours):
 
Tides and Currents Weather Stations Pressure Air Temp Water Temp Dewpoint Dewpoint Depression Visibility Wind Speed Wind Dir Waves Ship Positions

Ariel

Last reported at 2017-Jul-28 04:31 UTC. Time now 2017-Jul-28 04:44 UTC.
Position N 59°14' E 018°24'.

Length 22 m; draft 2.6 m.

Type: Sailing vessel. MMSI: 265516070.

Date/timePositionNaut miles runAvg speedWind from/ knotsBaromVisibWave heightAir tempDewpointWater temp
2017-Jul-28 04:31N 59°14' E 018°24'0 0.0
2017-Jul-28 03:59N 59°14' E 018°24'0 0.0
2017-Jul-28 03:30N 59°14' E 018°24'0 0.0
2017-Jul-28 03:00N 59°14' E 018°24'0 0.0
2017-Jul-28 02:30N 59°14' E 018°24'0 0.0
2017-Jul-28 02:00N 59°14' E 018°24'0 0.0
2017-Jul-28 01:30N 59°14' E 018°24'0 0.0
2017-Jul-28 01:00N 59°14' E 018°24'0 0.0
2017-Jul-28 00:30N 59°14' E 018°24'0 0.0
2017-Jul-28 00:01N 59°14' E 018°24'0 0.0
2017-Jul-27 23:30N 59°14' E 018°24'0 0.0
2017-Jul-27 23:00N 59°14' E 018°24'0 0.0
2017-Jul-27 22:30N 59°14' E 018°24'0 0.0
2017-Jul-27 22:01N 59°14' E 018°24'0 0.0
2017-Jul-27 21:30N 59°14' E 018°24'0 0.0
2017-Jul-27 21:01N 59°14' E 018°24'0 0.0
2017-Jul-27 20:30N 59°14' E 018°24'0 0.0
2017-Jul-27 20:00N 59°14' E 018°24'0 0.0
2017-Jul-27 19:30N 59°14' E 018°24'0 0.0
2017-Jul-27 19:00N 59°14' E 018°24'0 0.0
2017-Jul-27 18:31N 59°14' E 018°24'0 0.0
2017-Jul-27 17:59N 59°14' E 018°24'0 0.0
2017-Jul-27 17:30N 59°14' E 018°24'0 0.0
2017-Jul-27 17:00N 59°14' E 018°24'0 0.0
2017-Jul-27 16:30N 59°14' E 018°24'0 0.0
2017-Jul-27 16:00N 59°14' E 018°24'0 0.0
2017-Jul-27 15:30N 59°14' E 018°24'0 0.0
2017-Jul-27 15:00N 59°14' E 018°24'0 0.0
2017-Jul-27 14:01N 59°14' E 018°24'0 0.0
2017-Jul-27 13:30N 59°14' E 018°24'0 0.0
2017-Jul-27 13:00N 59°14' E 018°24'0 0.0
2017-Jul-27 12:31N 59°14' E 018°24'1 1.4
2017-Jul-27 12:00N 59°14' E 018°24'0 0.6
2017-Jul-27 11:28N 59°14' E 018°25'1 2.6
2017-Jul-27 11:00N 59°13' E 018°27'2 3.5
2017-Jul-27 10:31N 59°12' E 018°30'2 3.7
2017-Jul-27 09:58N 59°10' E 018°31'2 4.2
2017-Jul-27 09:26N 59°08' E 018°33'2 3.0
2017-Jul-27 08:48N 59°06' E 018°32'1 0.7
2017-Jul-27 07:29N 59°05' E 018°32'0 0.0
2017-Jul-27 06:50N 59°05' E 018°32'0 0.0
2017-Jul-27 06:18N 59°05' E 018°32'0 0.0
2017-Jul-27 05:59N 59°05' E 018°32'0 0.0
2017-Jul-27 05:30N 59°05' E 018°32'0 0.0
2017-Jul-27 05:00N 59°05' E 018°32'0 0.0
2017-Jul-27 04:20N 59°05' E 018°32'0 0.0
2017-Jul-27 03:58N 59°05' E 018°32'0 0.0
2017-Jul-27 03:29N 59°05' E 018°32'0 0.0
2017-Jul-27 02:58N 59°05' E 018°32'0 0.0
2017-Jul-27 00:22N 59°05' E 018°32'0 0.0
2017-Jul-26 23:57N 59°05' E 018°32'0 0.0
2017-Jul-26 23:30N 59°05' E 018°32'0 0.0
2017-Jul-26 22:59N 59°05' E 018°32'0 0.0
2017-Jul-26 22:27N 59°05' E 018°32'0 0.0
2017-Jul-26 22:00N 59°05' E 018°32'0 0.0
2017-Jul-26 21:30N 59°05' E 018°32'0 0.0
2017-Jul-26 20:56N 59°05' E 018°32'0 0.0
2017-Jul-26 20:29N 59°05' E 018°32'0 0.0
2017-Jul-26 20:00N 59°05' E 018°32'0 0.0
2017-Jul-26 19:28N 59°05' E 018°32'0 0.0
2017-Jul-26 18:59N 59°05' E 018°32'3 2.6
2017-Jul-26 17:57N 59°07' E 018°29'  
2017-Jul-24 07:42N 59°08' E 018°24'0 0.0
2017-Jul-24 07:30N 59°08' E 018°24'0 0.0
2017-Jul-24 06:58N 59°08' E 018°24'0 0.0
2017-Jul-24 06:29N 59°08' E 018°24'0 0.0
2017-Jul-24 05:58N 59°08' E 018°24'0 0.0
2017-Jul-24 04:21N 59°08' E 018°24'0 0.0
2017-Jul-24 01:28N 59°08' E 018°24'0 0.0
2017-Jul-24 01:00N 59°08' E 018°24'0 0.0
2017-Jul-24 00:28N 59°08' E 018°24'0 0.0
2017-Jul-23 23:54N 59°08' E 018°24'0 0.0
2017-Jul-23 23:20N 59°08' E 018°24'0 0.0
2017-Jul-23 22:58N 59°08' E 018°24'0 0.0
2017-Jul-23 22:29N 59°08' E 018°24'0 0.0
2017-Jul-23 20:57N 59°08' E 018°24'0 0.0
2017-Jul-23 08:08N 59°08' E 018°24'0 0.0
2017-Jul-23 07:59N 59°08' E 018°24'0 0.0
2017-Jul-23 07:23N 59°08' E 018°24'0 0.0
2017-Jul-23 06:48N 59°08' E 018°24'0 0.0
2017-Jul-23 06:29N 59°08' E 018°24'0 0.0
2017-Jul-23 05:59N 59°08' E 018°24'0 0.0
2017-Jul-23 05:17N 59°08' E 018°24'0 0.0
2017-Jul-23 04:41N 59°08' E 018°24'0 0.0
2017-Jul-23 04:20N 59°08' E 018°24'0 0.0
2017-Jul-23 03:53N 59°08' E 018°24'0 0.0
2017-Jul-23 03:29N 59°08' E 018°24'0 0.0
2017-Jul-23 02:56N 59°08' E 018°24'0 0.0
2017-Jul-23 02:26N 59°08' E 018°24'0 0.0
2017-Jul-22 23:29N 59°08' E 018°24'  

Dump ship's entire track history